createdAt,value
2019-02-05T00:02:19.811Z,7.43
2019-02-05T00:04:46.294Z,11.40
2019-02-05T00:07:12.851Z,8.17
2019-02-05T00:09:39.744Z,9.67
2019-02-05T00:12:06.924Z,14.70
2019-02-05T00:14:33.438Z,12.27
2019-02-05T00:16:59.952Z,14.13
2019-02-05T00:19:26.577Z,14.37
2019-02-05T00:21:53.378Z,14.33
2019-02-05T00:24:19.993Z,12.97
2019-02-05T00:26:46.880Z,15.63
2019-02-05T00:29:13.963Z,14.27
2019-02-05T00:31:40.710Z,14.27
2019-02-05T00:34:07.218Z,14.50
2019-02-05T00:36:34.183Z,14.03
2019-02-05T00:39:00.803Z,14.93
2019-02-05T00:41:27.591Z,14.83
2019-02-05T00:43:54.265Z,13.73
2019-02-05T00:46:21.035Z,11.93
2019-02-05T00:48:47.887Z,12.93
2019-02-05T00:51:14.709Z,11.77
2019-02-05T00:53:41.207Z,13.50
2019-02-05T00:56:17.292Z,13.97
2019-02-05T00:58:36.587Z,13.60
2019-02-05T01:01:04.063Z,13.40
2019-02-05T01:03:30.591Z,13.90
2019-02-05T01:05:57.326Z,12.57
2019-02-05T01:08:23.847Z,12.17
2019-02-05T01:10:50.454Z,9.27
2019-02-05T01:13:17.242Z,8.30
2019-02-05T01:15:43.835Z,7.57
2019-02-05T01:18:10.707Z,7.83
2019-02-05T01:20:37.626Z,9.10
2019-02-05T01:23:04.272Z,7.13
2019-02-05T01:25:31.467Z,12.27
2019-02-05T01:27:58.242Z,7.37
2019-02-05T01:30:27.235Z,8.90
2019-02-05T01:32:59.425Z,9.17
2019-02-05T01:35:26.312Z,9.47
2019-02-05T01:37:53.181Z,9.20
2019-02-05T01:40:22.774Z,9.03
2019-02-05T01:42:49.287Z,7.70
2019-02-05T01:45:17.784Z,8.60
2019-02-05T01:47:44.299Z,7.20
2019-02-05T01:50:17.360Z,7.57
2019-02-05T01:52:44.462Z,10.40
2019-02-05T01:55:11.312Z,10.23
2019-02-05T01:57:39.206Z,8.80
2019-02-05T02:00:18.660Z,8.37
2019-02-05T02:02:45.607Z,10.07
2019-02-05T02:05:12.728Z,7.73
2019-02-05T02:07:39.321Z,7.07
2019-02-05T02:10:12.576Z,13.40
2019-02-05T02:12:39.367Z,8.20
2019-02-05T02:15:08.778Z,11.97
2019-02-05T02:17:35.268Z,11.57
2019-02-05T02:20:07.911Z,10.50
2019-02-05T02:22:34.406Z,10.30
2019-02-05T02:25:00.919Z,13.80
2019-02-05T02:27:27.744Z,11.63
2019-02-05T02:29:54.270Z,15.23
2019-02-05T02:32:20.683Z,14.80
2019-02-05T02:34:47.452Z,14.80
2019-02-05T02:37:13.855Z,14.47
2019-02-05T02:39:40.276Z,13.10
2019-02-05T02:42:07.642Z,14.03
2019-02-05T02:44:34.404Z,13.18
2019-02-05T02:47:08.523Z,12.67
2019-02-05T02:49:35.120Z,9.13
2019-02-05T02:52:01.877Z,9.03
2019-02-05T02:54:28.407Z,7.47
2019-02-05T02:57:04.558Z,7.10
2019-02-05T02:59:32.957Z,8.67
2019-02-05T03:01:59.656Z,6.13
2019-02-05T03:04:26.142Z,6.70
2019-02-05T03:06:52.823Z,6.30
2019-02-05T03:09:19.604Z,8.23
2019-02-05T03:11:46.120Z,10.68
2019-02-05T03:14:12.888Z,9.55
2019-02-05T03:16:39.412Z,7.40
2019-02-05T03:19:06.229Z,9.53
2019-02-05T03:21:32.759Z,8.45
2019-02-05T03:23:59.555Z,8.68
2019-02-05T03:26:26.345Z,7.55
2019-02-05T03:28:53.087Z,9.30
2019-02-05T03:31:19.619Z,8.53
2019-02-05T03:33:46.278Z,7.50
2019-02-05T03:36:12.791Z,7.58
2019-02-05T03:38:39.707Z,6.10
2019-02-05T03:41:06.348Z,6.10
2019-02-05T03:43:33.435Z,6.63
2019-02-05T03:46:02.106Z,6.80
2019-02-05T03:48:28.830Z,5.93
2019-02-05T03:51:17.231Z,6.80
2019-02-05T03:53:53.463Z,5.23
2019-02-05T03:56:46.893Z,9.50
2019-02-05T03:59:20.449Z,8.40
2019-02-05T04:02:19.579Z,6.92
2019-02-05T04:05:12.558Z,7.83
2019-02-05T04:07:45.999Z,5.73
2019-02-05T04:10:32.153Z,9.77
2019-02-05T04:13:05.750Z,9.43
2019-02-05T04:15:39.556Z,7.40
2019-02-05T04:18:12.743Z,9.68
2019-02-05T04:21:02.927Z,5.90
2019-02-05T04:23:57.208Z,6.77
2019-02-05T04:26:36.731Z,6.30
2019-02-05T04:29:14.172Z,6.87
2019-02-05T04:32:08.856Z,6.97
2019-02-05T04:34:55.861Z,6.95
2019-02-05T04:37:45.697Z,6.10
2019-02-05T04:40:43.312Z,8.13
2019-02-05T04:43:21.747Z,6.85
2019-02-05T04:45:54.803Z,6.70
2019-02-05T04:48:59.788Z,6.15
2019-02-05T04:51:51.037Z,11.70
2019-02-05T04:54:33.309Z,6.90
2019-02-05T04:57:12.511Z,8.98
2019-02-05T05:00:01.179Z,6.20
2019-02-05T05:03:00.297Z,6.57
2019-02-05T05:05:39.893Z,7.33
2019-02-05T05:08:16.244Z,6.50
2019-02-05T05:10:42.770Z,7.25
2019-02-05T05:13:09.279Z,9.23
2019-02-05T05:15:35.773Z,7.22
2019-02-05T05:18:03.505Z,8.25
2019-02-05T05:20:30.731Z,6.95
2019-02-05T05:22:58.041Z,7.35
2019-02-05T05:25:24.723Z,6.15
2019-02-05T05:27:53.460Z,8.30
2019-02-05T05:30:20.091Z,6.97
2019-02-05T05:32:46.609Z,7.42
2019-02-05T05:35:13.381Z,7.35
2019-02-05T05:37:39.889Z,13.93
2019-02-05T05:40:07.728Z,10.38
2019-02-05T05:42:34.243Z,7.60
2019-02-05T05:45:01.262Z,7.62
2019-02-05T05:47:28.206Z,7.75
2019-02-05T05:49:54.990Z,10.23
2019-02-05T05:52:21.753Z,6.53
2019-02-05T05:54:48.559Z,8.30
2019-02-05T05:57:18.716Z,6.17
2019-02-05T05:59:44.714Z,6.83
2019-02-05T06:02:11.497Z,6.58
2019-02-05T06:04:38.122Z,6.22
2019-02-05T06:07:04.761Z,7.55
2019-02-05T06:09:31.386Z,6.65
2019-02-05T06:11:57.987Z,8.08
2019-02-05T06:14:24.762Z,6.78
2019-02-05T06:16:51.936Z,6.10
2019-02-05T06:19:18.752Z,12.55
2019-02-05T06:21:45.553Z,11.43
2019-02-05T06:24:12.073Z,10.25
2019-02-05T06:26:39.069Z,13.80
2019-02-05T06:29:05.699Z,13.75
2019-02-05T06:31:32.331Z,14.90
2019-02-05T06:33:59.071Z,15.75
2019-02-05T06:36:25.705Z,18.20
2019-02-05T06:38:52.353Z,15.05
2019-02-05T06:41:19.359Z,17.70
2019-02-05T06:43:45.895Z,12.75
2019-02-05T06:46:12.651Z,13.40
2019-02-05T06:48:39.467Z,12.58
2019-02-05T06:51:06.255Z,12.20
2019-02-05T06:53:33.142Z,9.80
2019-02-05T06:55:59.688Z,8.80
2019-02-05T06:58:26.212Z,8.13
2019-02-05T07:00:53.033Z,8.93
2019-02-05T07:03:19.532Z,7.53
2019-02-05T07:05:46.371Z,7.20
2019-02-05T07:08:13.147Z,7.53
2019-02-05T07:10:40.705Z,9.85
2019-02-05T07:13:07.222Z,9.10
2019-02-05T07:15:33.791Z,10.43
2019-02-05T07:18:00.301Z,10.50
2019-02-05T07:20:27.310Z,10.35
2019-02-05T07:22:56.024Z,8.30
2019-02-05T07:25:22.731Z,8.38
2019-02-05T07:27:49.348Z,10.05
2019-02-05T07:30:19.189Z,8.20
2019-02-05T07:32:45.708Z,13.58
2019-02-05T07:35:12.615Z,12.95
2019-02-05T07:37:39.474Z,16.40
2019-02-05T07:40:19.975Z,13.80
2019-02-05T07:42:46.601Z,11.57
2019-02-05T07:45:16.850Z,10.58
2019-02-05T07:47:43.743Z,14.07
2019-02-05T07:50:15.483Z,15.88
2019-02-05T07:52:41.912Z,19.20
2019-02-05T07:55:09.536Z,17.30
2019-02-05T07:57:36.500Z,16.12
2019-02-05T08:00:20.931Z,19.30
2019-02-05T08:02:48.054Z,18.32
2019-02-05T08:05:18.031Z,19.00
2019-02-05T08:07:44.967Z,15.90
2019-02-05T08:10:14.784Z,15.43
2019-02-05T08:12:41.349Z,17.67
2019-02-05T08:15:11.994Z,19.85
2019-02-05T08:17:38.888Z,19.67
2019-02-05T08:20:07.211Z,19.92
2019-02-05T08:22:33.842Z,17.48
2019-02-05T08:25:00.366Z,17.70
2019-02-05T08:27:27.167Z,17.43
2019-02-05T08:29:53.989Z,16.17
2019-02-05T08:32:21.504Z,15.30
2019-02-05T08:34:48.124Z,15.57
2019-02-05T08:37:14.963Z,15.07
2019-02-05T08:39:41.527Z,14.00
2019-02-05T08:42:08.023Z,14.93
2019-02-05T08:44:34.902Z,14.40
2019-02-05T08:47:01.400Z,14.67
2019-02-05T08:49:27.906Z,13.20
2019-02-05T08:51:54.563Z,13.27
2019-02-05T08:54:21.351Z,14.33
2019-02-05T08:56:48.167Z,13.53
2019-02-05T08:59:15.215Z,13.63
2019-02-05T09:01:41.984Z,11.83
2019-02-05T09:04:08.533Z,10.93
2019-02-05T09:06:35.554Z,12.37
2019-02-05T09:09:05.423Z,12.33
2019-02-05T09:11:32.935Z,10.43
2019-02-05T09:14:10.339Z,11.53
2019-02-05T09:16:27.769Z,12.20
2019-02-05T09:18:55.488Z,10.63
2019-02-05T09:21:22.012Z,10.00
2019-02-05T09:23:48.549Z,11.10
2019-02-05T09:26:15.136Z,11.27
2019-02-05T09:28:41.671Z,12.57
2019-02-05T09:31:08.168Z,10.63
2019-02-05T09:33:34.786Z,10.53
2019-02-05T09:36:01.297Z,11.43
2019-02-05T09:38:27.801Z,11.80
2019-02-05T09:40:55.703Z,11.87
2019-02-05T09:43:22.212Z,12.00
2019-02-05T09:45:49.101Z,10.97
2019-02-05T09:48:15.613Z,11.87
2019-02-05T09:50:44.948Z,10.73
2019-02-05T09:53:10.831Z,11.57
2019-02-05T09:55:37.381Z,13.13
2019-02-05T09:58:03.867Z,11.93
2019-02-05T10:00:36.137Z,13.00
2019-02-05T10:03:04.237Z,12.87
2019-02-05T10:05:32.488Z,13.10
2019-02-05T10:07:59.053Z,13.80
2019-02-05T10:10:25.724Z,14.00
2019-02-05T10:12:52.352Z,14.57
2019-02-05T10:15:35.870Z,18.73
2019-02-05T10:18:05.323Z,21.57
2019-02-05T10:20:32.820Z,22.90
2019-02-05T10:23:01.247Z,24.17
2019-02-05T10:25:27.855Z,21.93
2019-02-05T10:27:54.451Z,21.00
2019-02-05T10:30:26.926Z,21.33
2019-02-05T10:32:53.643Z,17.97
2019-02-05T10:35:20.751Z,18.40
2019-02-05T10:37:47.661Z,18.13
2019-02-05T10:40:15.280Z,19.20
2019-02-05T10:42:44.023Z,21.03
2019-02-05T10:45:13.957Z,23.53
2019-02-05T10:47:40.836Z,21.23
2019-02-05T10:50:09.860Z,22.17
2019-02-05T10:52:36.777Z,18.67
2019-02-05T10:55:07.053Z,17.50
2019-02-05T10:57:33.574Z,15.50
2019-02-05T11:00:08.505Z,15.07
2019-02-05T11:02:28.414Z,15.50
2019-02-05T11:04:55.218Z,14.20
2019-02-05T11:07:21.903Z,17.03
2019-02-05T11:09:48.408Z,18.00
2019-02-05T11:12:15.201Z,14.93
2019-02-05T11:14:41.920Z,12.23
2019-02-05T11:17:09.559Z,12.20
2019-02-05T11:19:36.419Z,15.47
2019-02-05T11:22:03.255Z,16.73
2019-02-05T11:24:29.772Z,15.53
2019-02-05T11:26:57.440Z,14.90
2019-02-05T11:29:26.058Z,13.17
2019-02-05T11:31:52.883Z,15.23
2019-02-05T11:34:19.716Z,13.70
2019-02-05T11:36:46.251Z,12.13
2019-02-05T11:39:14.099Z,11.50
2019-02-05T11:41:41.845Z,9.43
2019-02-05T11:44:09.444Z,10.67
2019-02-05T11:46:37.195Z,9.83
2019-02-05T11:49:04.174Z,11.00
2019-02-05T11:51:30.993Z,9.77
2019-02-05T11:53:57.907Z,9.97
2019-02-05T11:56:24.511Z,9.93
2019-02-05T11:58:51.279Z,10.40
2019-02-05T12:01:17.904Z,9.27
2019-02-05T12:03:44.434Z,10.43
2019-02-05T12:06:11.184Z,10.07
2019-02-05T12:08:37.679Z,10.03
2019-02-05T12:11:04.380Z,9.57
2019-02-05T12:13:31.138Z,10.73
2019-02-05T12:15:57.688Z,9.80
2019-02-05T12:18:24.571Z,10.57
2019-02-05T12:20:51.098Z,10.53
2019-02-05T12:23:18.030Z,9.83
2019-02-05T12:25:44.542Z,11.60
2019-02-05T12:28:12.075Z,10.87
2019-02-05T12:30:44.863Z,11.50
2019-02-05T12:33:08.547Z,11.00
2019-02-05T12:35:35.494Z,10.33
2019-02-05T12:38:04.010Z,11.47
2019-02-05T12:40:33.174Z,11.43
2019-02-05T12:43:00.174Z,10.00
2019-02-05T12:45:32.453Z,9.70
2019-02-05T12:47:59.965Z,10.03
2019-02-05T12:50:31.751Z,8.47
2019-02-05T12:52:58.940Z,9.20
2019-02-05T12:55:25.668Z,8.40
2019-02-05T12:57:52.442Z,9.63
2019-02-05T13:00:25.223Z,9.20
2019-02-05T13:02:54.430Z,10.83
2019-02-05T13:05:20.635Z,11.33
2019-02-05T13:07:47.382Z,11.30
2019-02-05T13:10:17.922Z,10.30
2019-02-05T13:12:45.439Z,10.53
2019-02-05T13:15:12.384Z,10.13
2019-02-05T13:17:39.162Z,11.13
2019-02-05T13:20:09.675Z,11.17
2019-02-05T13:22:36.179Z,10.80
2019-02-05T13:25:07.767Z,10.03
2019-02-05T13:27:34.270Z,13.97
2019-02-05T13:30:00.793Z,11.70
2019-02-05T13:32:27.330Z,11.70
2019-02-05T13:34:54.345Z,12.47
2019-02-05T13:37:21.104Z,11.53
2019-02-05T13:39:47.754Z,11.33
2019-02-05T13:42:14.434Z,9.07
2019-02-05T13:44:41.658Z,9.23
2019-02-05T13:47:08.171Z,8.73
2019-02-05T13:49:34.963Z,9.50
2019-02-05T13:52:01.760Z,10.50
2019-02-05T13:54:28.268Z,10.83
2019-02-05T13:56:54.787Z,10.27
2019-02-05T13:59:21.283Z,9.90
2019-02-05T14:01:48.056Z,10.37
2019-02-05T14:04:15.141Z,10.40
2019-02-05T14:06:41.771Z,9.77
2019-02-05T14:09:11.007Z,10.17
2019-02-05T14:11:37.650Z,9.37
2019-02-05T14:14:04.287Z,9.00
2019-02-05T14:16:30.795Z,10.47
2019-02-05T14:18:57.377Z,10.33
2019-02-05T14:21:24.243Z,9.80
2019-02-05T14:23:51.031Z,10.43
2019-02-05T14:26:17.559Z,10.53
2019-02-05T14:28:44.396Z,9.27
2019-02-05T14:31:11.023Z,9.53
2019-02-05T14:33:37.876Z,9.50
2019-02-05T14:36:04.610Z,9.97
2019-02-05T14:38:31.090Z,9.03
2019-02-05T14:41:00.775Z,9.70
2019-02-05T14:43:27.315Z,10.27
2019-02-05T14:45:53.867Z,9.47
2019-02-05T14:51:16.711Z,9.70
2019-02-05T14:53:43.724Z,9.70
2019-02-05T14:56:10.215Z,9.47
2019-02-05T14:58:36.752Z,10.73
2019-02-05T15:01:03.658Z,10.77
2019-02-05T15:03:30.473Z,8.30
2019-02-05T15:05:56.963Z,9.70
2019-02-05T15:08:23.505Z,15.37
2019-02-05T15:10:50.110Z,16.03
2019-02-05T15:13:16.912Z,17.20
2019-02-05T15:15:43.550Z,16.27
2019-02-05T15:18:11.309Z,15.90
2019-02-05T15:20:42.993Z,15.50
2019-02-05T15:23:10.286Z,16.37
2019-02-05T15:25:37.292Z,13.87
2019-02-05T15:28:04.004Z,13.00
2019-02-05T15:30:35.630Z,13.43
2019-02-05T15:33:20.750Z,15.00
2019-02-05T15:35:59.591Z,15.77
2019-02-05T15:38:26.827Z,12.37
2019-02-05T15:40:53.722Z,15.47
2019-02-05T15:43:20.529Z,16.77
2019-02-05T15:45:47.044Z,14.13
2019-02-05T15:48:13.812Z,15.33
2019-02-05T15:50:41.445Z,12.77
2019-02-05T15:53:08.509Z,14.73
2019-02-05T15:55:35.243Z,17.10
2019-02-05T15:58:02.112Z,16.00
2019-02-05T16:00:28.675Z,16.30
2019-02-05T16:02:55.306Z,22.83
2019-02-05T16:05:22.011Z,19.10
2019-02-05T16:07:49.548Z,18.53
2019-02-05T16:10:23.047Z,19.10
2019-02-05T16:12:49.574Z,19.33
2019-02-05T16:15:16.374Z,20.50
2019-02-05T16:17:43.109Z,20.13
2019-02-05T16:20:16.756Z,19.10
2019-02-05T16:22:43.665Z,18.40
2019-02-05T16:25:12.479Z,21.63
2019-02-05T16:27:39.264Z,16.37
2019-02-05T16:30:09.607Z,22.13
2019-02-05T16:32:36.114Z,19.80
2019-02-05T16:35:04.992Z,17.00
2019-02-05T16:37:31.488Z,15.90
2019-02-05T16:39:58.275Z,13.13
2019-02-05T16:42:24.816Z,13.83
2019-02-05T16:44:51.316Z,13.93
2019-02-05T16:47:17.841Z,19.53
2019-02-05T16:49:44.586Z,12.67
2019-02-05T16:52:11.430Z,13.77
2019-02-05T16:54:37.973Z,19.13
2019-02-05T16:57:04.743Z,14.07
2019-02-05T16:59:31.269Z,18.60
2019-02-05T17:01:58.121Z,18.67
2019-02-05T17:04:24.881Z,16.30
2019-02-05T17:06:51.388Z,13.30
2019-02-05T17:09:18.227Z,14.97
2019-02-05T17:11:47.991Z,13.33
2019-02-05T17:14:14.703Z,11.97
2019-02-05T17:16:41.372Z,12.50
2019-02-05T17:19:08.140Z,16.47
2019-02-05T17:21:34.977Z,15.77
2019-02-05T17:24:01.898Z,15.13
2019-02-05T17:26:28.928Z,15.07
2019-02-05T17:28:55.456Z,13.70
2019-02-05T17:31:22.294Z,13.53
2019-02-05T17:33:49.104Z,14.67
2019-02-05T17:36:15.594Z,12.10
2019-02-05T17:38:42.037Z,16.93
2019-02-05T17:41:08.535Z,19.87
2019-02-05T17:43:35.067Z,17.10
2019-02-05T17:46:02.142Z,17.70
2019-02-05T17:48:28.936Z,18.40
2019-02-05T17:50:55.720Z,17.17
2019-02-05T17:53:22.528Z,20.83
2019-02-05T17:55:49.325Z,18.50
2019-02-05T17:58:15.917Z,19.03
2019-02-05T18:00:50.339Z,17.33
2019-02-05T18:03:18.142Z,17.70
2019-02-05T18:05:44.759Z,14.53
2019-02-05T18:08:11.402Z,13.50
2019-02-05T18:10:37.908Z,17.20
2019-02-05T18:13:04.439Z,12.70
2019-02-05T18:15:32.563Z,11.90
2019-02-05T18:17:59.085Z,13.63
2019-02-05T18:20:25.913Z,12.83
2019-02-05T18:22:52.843Z,12.40
2019-02-05T18:25:19.680Z,12.47
2019-02-05T18:27:46.597Z,12.80
2019-02-05T18:30:18.588Z,15.73
2019-02-05T18:32:46.862Z,17.40
2019-02-05T18:35:14.492Z,16.80
2019-02-05T18:37:42.088Z,16.37
2019-02-05T18:40:14.391Z,15.10
2019-02-05T18:42:41.322Z,18.60
2019-02-05T18:45:13.166Z,15.93
2019-02-05T18:47:39.679Z,18.67
2019-02-05T18:50:10.391Z,14.70
2019-02-05T18:52:36.930Z,15.30
2019-02-05T18:55:07.167Z,13.90
2019-02-05T18:57:33.952Z,17.07
2019-02-05T19:00:00.855Z,16.33
2019-02-05T19:02:27.980Z,13.83
2019-02-05T19:04:54.600Z,15.37
2019-02-05T19:07:21.415Z,14.13
2019-02-05T19:09:49.947Z,13.60
2019-02-05T19:12:16.782Z,13.40
2019-02-05T19:14:43.568Z,17.70
2019-02-05T19:17:10.091Z,13.63
2019-02-05T19:19:36.880Z,12.60
2019-02-05T19:22:03.508Z,11.37
2019-02-05T19:24:33.203Z,12.80
2019-02-05T19:27:00.004Z,12.57
2019-02-05T19:29:26.695Z,16.63
2019-02-05T19:31:53.234Z,16.13
2019-02-05T19:34:20.726Z,15.50
2019-02-05T19:36:47.547Z,19.07
2019-02-05T19:39:15.195Z,17.40
2019-02-05T19:41:42.317Z,22.37
2019-02-05T19:44:09.309Z,17.60
2019-02-05T19:46:41.048Z,23.37
2019-02-05T19:49:09.661Z,20.87
2019-02-05T19:51:36.182Z,20.57
2019-02-05T19:54:02.999Z,19.70
2019-02-05T19:56:37.922Z,21.17
2019-02-05T19:58:58.044Z,16.33
2019-02-05T20:01:24.704Z,20.70
2019-02-05T20:03:51.222Z,19.37
2019-02-05T20:06:18.048Z,21.67
2019-02-05T20:08:44.607Z,18.97
2019-02-05T20:11:12.225Z,19.23
2019-02-05T20:13:40.483Z,20.75
2019-02-05T20:16:08.163Z,19.52
2019-02-05T20:18:34.944Z,14.30
2019-02-05T20:21:01.735Z,22.83
2019-02-05T20:23:28.267Z,19.40
2019-02-05T20:25:55.057Z,16.17
2019-02-05T20:28:21.996Z,16.10
2019-02-05T20:30:48.500Z,19.57
2019-02-05T20:33:15.323Z,16.57
2019-02-05T20:35:41.830Z,20.62
2019-02-05T20:38:08.617Z,16.03
2019-02-05T20:40:35.392Z,15.07
2019-02-05T20:43:01.989Z,13.67
2019-02-05T20:45:28.568Z,13.73
2019-02-05T20:47:56.031Z,13.00
2019-02-05T20:50:22.734Z,13.62
2019-02-05T20:52:49.340Z,12.10
2019-02-05T20:55:17.558Z,10.93
2019-02-05T20:57:44.437Z,16.13
2019-02-05T21:00:17.591Z,14.20
2019-02-05T21:02:44.642Z,12.15
2019-02-05T21:05:14.027Z,11.47
2019-02-05T21:07:40.820Z,10.70
2019-02-05T21:10:13.321Z,11.73
2019-02-05T21:12:39.965Z,11.45
2019-02-05T21:15:10.446Z,13.60
2019-02-05T21:17:36.970Z,15.28
2019-02-05T21:20:28.962Z,12.80
2019-02-05T21:22:50.365Z,12.40
2019-02-05T21:25:20.324Z,12.15
2019-02-05T21:27:47.545Z,14.43
2019-02-05T21:30:16.996Z,15.32
2019-02-05T21:32:43.849Z,11.70
2019-02-05T21:35:11.771Z,11.08
2019-02-05T21:37:39.493Z,16.80
2019-02-05T21:40:10.347Z,10.83
2019-02-05T21:42:37.255Z,12.57
2019-02-05T21:45:10.496Z,14.23
2019-02-05T21:47:40.327Z,15.03
2019-02-05T21:50:10.242Z,13.45
2019-02-05T21:52:36.869Z,14.20
2019-02-05T21:55:06.098Z,9.90
2019-02-05T21:57:33.125Z,14.28
2019-02-05T21:59:59.668Z,14.75
2019-02-05T22:02:26.193Z,14.85
2019-02-05T22:04:52.844Z,12.73
2019-02-05T22:07:19.712Z,12.03
2019-02-05T22:09:48.295Z,14.73
2019-02-05T22:12:15.794Z,15.23
2019-02-05T22:14:42.306Z,14.40
2019-02-05T22:17:09.336Z,12.58
2019-02-05T22:19:36.876Z,13.85
2019-02-05T22:22:03.470Z,15.60
2019-02-05T22:24:30.166Z,13.53
2019-02-05T22:26:57.228Z,16.73
2019-02-05T22:29:23.774Z,17.45
2019-02-05T22:31:50.570Z,18.17
2019-02-05T22:34:17.341Z,18.80
2019-02-05T22:36:44.064Z,18.17
2019-02-05T22:39:10.902Z,17.10
2019-02-05T22:41:37.639Z,18.52
2019-02-05T22:44:04.550Z,19.12
2019-02-05T22:46:31.167Z,16.45
2019-02-05T22:48:57.980Z,16.05
2019-02-05T22:51:24.913Z,15.60
2019-02-05T22:53:51.679Z,12.50
2019-02-05T22:56:18.504Z,14.50
2019-02-05T22:58:45.137Z,14.18
2019-02-05T23:01:22.486Z,13.30
2019-02-05T23:03:53.055Z,11.55
2019-02-05T23:06:32.703Z,12.60
2019-02-05T23:09:03.600Z,12.80
2019-02-05T23:11:34.588Z,17.73
2019-02-05T23:14:01.300Z,17.07
2019-02-05T23:16:28.114Z,16.27
2019-02-05T23:18:54.707Z,15.70
2019-02-05T23:21:21.489Z,17.92
2019-02-05T23:23:48.009Z,15.75
2019-02-05T23:26:15.099Z,13.25
2019-02-05T23:28:42.151Z,17.13
2019-02-05T23:31:09.059Z,13.72
2019-02-05T23:33:35.667Z,17.98
2019-02-05T23:36:02.606Z,13.68
2019-02-05T23:38:29.292Z,11.70
2019-02-05T23:40:56.528Z,11.87
2019-02-05T23:43:23.149Z,10.13
2019-02-05T23:46:00.932Z,11.93
2019-02-05T23:48:18.052Z,11.83
2019-02-05T23:50:44.574Z,12.37
2019-02-05T23:53:11.547Z,16.65
2019-02-05T23:55:38.124Z,14.40
2019-02-05T23:58:05.009Z,12.35
